Terminal Aerodrome Forecast
Issued by NWS

Current Version | Previous Version | Text Only | Print | Product List | Glossary On
Versions: 1 2 3 4 5 6 7 8 9 10 11
000
FTUS45 KVEF 192320
TAFEED
TAF
KEED 192320Z 2000/2024 29020G30KT P6SM SCT100
     FM200100 29012G20KT P6SM SCT120
     FM200400 29007KT P6SM SKC
     FM201000 33006KT P6SM SKC
     FM201800 02010KT P6SM SKC=

USA.gov is the U.S. government's official web portal to all federal, state and local government web resources and services.